Time;durP1;ratioP1;P1;durP2;ratioP2;P2;SDS_P1;SDS_P2;PMS_P1;PMS_P2;Temp;Humidity;BMP_temperature;BMP_pressure;BME280_temperature;BME280_humidity;BME280_pressure;Samples;Min_cycle;Max_cycle;Signal;HPM_P1;HPM_P2
2023/07/29 00:00:31;;;;;;;;;12.75;12.00;;;;;21.48;77.72;100355.25;5035331;28;53915;-77
2023/07/29 00:02:56;;;;;;;;;13.25;11.75;;;;;21.45;77.61;100340.34;5040267;28;45357;-77
2023/07/29 00:05:22;;;;;;;;;9.50;9.25;;;;;21.48;77.63;100347.28;5038924;28;48468;-77
2023/07/29 00:07:47;;;;;;;;;12.50;10.25;;;;;21.43;77.84;100339.63;5037362;28;45495;-77
2023/07/29 00:10:13;;;;;;;;;11.25;8.75;;;;;21.50;77.79;100348.03;5022153;28;64146;-77
2023/07/29 00:12:39;;;;;;;;;9.50;9.25;;;;;21.47;77.15;100338.44;5047935;28;45752;-78
2023/07/29 00:15:05;;;;;;;;;8.75;7.25;;;;;21.47;77.19;100333.13;5031422;28;48086;-78
2023/07/29 00:17:30;;;;;;;;;7.00;6.25;;;;;21.46;77.64;100331.44;5035112;28;46509;-76
2023/07/29 00:19:56;;;;;;;;;10.50;7.75;;;;;21.47;77.49;100321.63;5035889;28;62272;-78
2023/07/29 00:22:21;;;;;;;;;8.00;7.75;;;;;21.44;77.42;100312.03;5037266;28;54234;-78
2023/07/29 00:24:53;;;;;;;;;12.25;11.00;;;;;21.42;77.57;100311.31;5034920;28;45433;-78
2023/07/29 00:27:18;;;;;;;;;10.00;9.25;;;;;21.38;77.59;100300.06;5038594;28;45312;-78
2023/07/29 00:29:44;;;;;;;;;9.00;8.00;;;;;21.39;77.25;100311.56;5038279;28;45898;-77
2023/07/29 00:32:09;;;;;;;;;10.00;8.00;;;;;21.32;77.52;100299.69;5030525;28;63383;-77
2023/07/29 00:34:34;;;;;;;;;12.50;10.00;;;;;21.30;77.20;100309.63;5008539;28;47043;-77
2023/07/29 00:37:00;;;;;;;;;9.00;9.00;;;;;21.21;77.34;100300.53;5036158;28;58814;-77
2023/07/29 00:39:25;;;;;;;;;11.50;9.50;;;;;21.24;77.18;100314.44;5036021;28;45775;-77
2023/07/29 00:41:51;;;;;;;;;6.75;6.00;;;;;21.21;77.59;100313.84;5008395;28;45758;-77
2023/07/29 00:44:16;;;;;;;;;8.75;6.75;;;;;21.20;77.36;100315.66;5024630;28;46778;-77
2023/07/29 00:46:43;;;;;;;;;9.75;8.00;;;;;21.17;77.22;100312.41;5036201;28;45362;-77
2023/07/29 00:49:08;;;;;;;;;5.00;5.00;;;;;21.15;76.96;100311.69;5020739;28;45927;-76
2023/07/29 00:51:33;;;;;;;;;4.25;4.25;;;;;21.12;75.71;100323.41;5039143;28;45444;-76
2023/07/29 00:53:59;;;;;;;;;5.50;4.00;;;;;21.16;76.37;100324.00;5034338;28;71690;-76
2023/07/29 00:56:24;;;;;;;;;5.25;4.00;;;;;21.17;75.55;100325.72;5021146;28;45432;-76
2023/07/29 00:58:51;;;;;;;;;3.50;2.75;;;;;21.19;75.63;100323.78;5036401;28;45286;-76
2023/07/29 01:01:17;;;;;;;;;2.25;2.25;;;;;21.16;75.94;100319.56;5029685;28;45340;-76
2023/07/29 01:03:45;;;;;;;;;2.75;2.75;;;;;21.16;75.08;100322.22;5051268;28;45896;-77
2023/07/29 01:06:28;;;;;;;;;3.00;1.50;;;;;21.18;74.80;100327.41;5023981;28;45807;-77
2023/07/29 01:09:14;;;;;;;;;2.25;2.25;;;;;21.13;74.50;100330.44;5033151;28;45573;-77
2023/07/29 01:12:08;;;;;;;;;2.00;2.00;;;;;21.09;74.56;100334.31;5030597;28;45479;-76
2023/07/29 01:14:44;;;;;;;;;2.00;2.00;;;;;21.04;75.07;100334.66;5031701;28;45314;-76
2023/07/29 01:17:13;;;;;;;;;2.25;2.00;;;;;21.07;74.59;100327.38;5028292;28;45838;-77
2023/07/29 01:20:06;;;;;;;;;2.00;2.00;;;;;21.04;75.27;100305.38;5033450;28;45313;-78
2023/07/29 01:22:36;;;;;;;;;1.50;1.50;;;;;21.01;73.95;100297.63;5037317;28;45431;-79
2023/07/29 01:25:02;;;;;;;;;2.75;2.00;;;;;20.98;75.01;100310.31;5028812;28;45463;-77
2023/07/29 01:27:27;;;;;;;;;2.75;2.00;;;;;20.99;74.74;100306.72;5045311;28;45483;-76
2023/07/29 01:29:54;;;;;;;;;3.00;1.50;;;;;20.96;73.59;100301.63;5032011;28;45281;-78
2023/07/29 01:32:57;;;;;;;;;4.00;2.00;;;;;20.93;74.18;100316.03;5055268;28;45427;-78
2023/07/29 01:35:33;;;;;;;;;2.00;2.00;;;;;20.89;74.85;100317.19;5027823;28;46881;-78
2023/07/29 01:38:08;;;;;;;;;1.50;1.50;;;;;20.86;74.82;100307.66;5050849;28;45726;-78
2023/07/29 01:40:34;;;;;;;;;4.00;2.00;;;;;20.89;75.10;100311.03;5023913;28;45479;-78
2023/07/29 01:42:59;;;;;;;;;3.25;2.00;;;;;20.86;74.09;100307.66;5026611;28;45266;-78
2023/07/29 01:45:25;;;;;;;;;2.25;2.00;;;;;20.85;74.76;100308.59;5027896;28;46011;-76
2023/07/29 01:47:54;;;;;;;;;7.75;3.75;;;;;20.84;75.13;100300.75;5026917;28;45516;-76
2023/07/29 01:50:19;;;;;;;;;4.50;2.00;;;;;20.80;74.18;100291.31;5037312;28;49112;-78
2023/07/29 01:52:53;;;;;;;;;2.50;2.50;;;;;20.80;74.45;100297.47;5037521;28;45356;-77
2023/07/29 01:55:19;;;;;;;;;2.25;2.00;;;;;20.79;74.91;100305.59;5039371;28;45557;-76
2023/07/29 01:57:44;;;;;;;;;2.00;1.50;;;;;20.77;74.25;100300.41;5032375;28;45511;-77
2023/07/29 02:00:10;;;;;;;;;1.00;1.00;;;;;20.76;74.71;100311.97;5037129;28;45269;-78
2023/07/29 02:02:35;;;;;;;;;1.00;1.00;;;;;20.77;74.62;100316.34;5031554;28;45527;-78
2023/07/29 02:05:01;;;;;;;;;2.00;2.00;;;;;20.75;74.37;100318.28;5030260;28;73782;-77
2023/07/29 02:07:26;;;;;;;;;1.00;1.00;;;;;20.70;74.15;100320.44;5038193;28;46342;-77
2023/07/29 02:09:52;;;;;;;;;2.00;1.75;;;;;20.69;73.67;100333.84;5038008;28;45434;-77
2023/07/29 02:12:17;;;;;;;;;2.25;0.50;;;;;20.66;73.61;100342.88;5044542;28;55761;-77
2023/07/29 02:14:45;;;;;;;;;3.25;1.75;;;;;20.63;73.04;100341.31;5038110;28;66136;-77
2023/07/29 02:17:10;;;;;;;;;1.50;1.00;;;;;20.63;74.15;100332.50;5032802;28;45437;-76
2023/07/29 02:19:35;;;;;;;;;2.00;2.00;;;;;20.59;74.65;100284.00;5038759;28;63705;-77
2023/07/29 02:22:01;;;;;;;;;1.00;1.00;;;;;20.60;74.11;100301.63;5032131;28;45297;-77
2023/07/29 02:24:26;;;;;;;;;1.00;1.00;;;;;20.57;73.81;100315.16;5037901;28;61195;-77
2023/07/29 02:26:51;;;;;;;;;2.00;2.00;;;;;20.53;74.24;100297.75;5040868;28;62163;-76
2023/07/29 02:29:17;;;;;;;;;2.00;2.00;;;;;20.49;73.69;100285.66;5038446;28;45465;-77
2023/07/29 02:31:44;;;;;;;;;2.00;2.00;;;;;20.37;73.55;100281.28;5036068;28;50278;-77
2023/07/29 02:34:09;;;;;;;;;1.75;1.75;;;;;20.38;73.79;100298.91;5029128;28;48525;-77
2023/07/29 02:36:34;;;;;;;;;2.00;2.00;;;;;20.32;74.11;100316.16;5020583;28;45369;-78
2023/07/29 02:39:00;;;;;;;;;1.75;1.00;;;;;20.32;74.14;100320.63;5035869;28;45424;-78
2023/07/29 02:41:25;;;;;;;;;1.50;1.00;;;;;20.24;74.07;100316.75;5018999;28;66535;-78
2023/07/29 02:43:51;;;;;;;;;1.00;1.00;;;;;20.26;74.57;100314.81;5034914;28;48092;-77
2023/07/29 02:46:16;;;;;;;;;2.00;2.00;;;;;20.24;74.04;100319.41;5039422;28;45478;-77
2023/07/29 02:48:42;;;;;;;;;3.00;1.00;;;;;20.16;73.85;100311.13;5031026;28;45377;-77
2023/07/29 02:51:07;;;;;;;;;1.00;1.00;;;;;20.17;74.18;100304.00;5039648;28;45435;-77
2023/07/29 02:53:33;;;;;;;;;2.00;1.00;;;;;20.16;74.38;100307.63;5039375;28;45363;-77
2023/07/29 02:55:58;;;;;;;;;1.00;1.00;;;;;20.16;74.67;100319.09;5060320;28;45258;-77
2023/07/29 02:58:26;;;;;;;;;1.00;1.00;;;;;20.12;74.19;100319.47;5038518;28;45335;-78
2023/07/29 03:00:51;;;;;;;;;2.00;2.00;;;;;20.09;74.67;100321.38;5038589;28;45403;-77
2023/07/29 03:03:18;;;;;;;;;2.50;1.00;;;;;20.07;74.80;100325.09;5030355;28;47145;-77
2023/07/29 03:05:44;;;;;;;;;1.00;1.00;;;;;20.02;74.99;100321.94;5033434;28;45408;-77
2023/07/29 03:08:09;;;;;;;;;1.00;1.00;;;;;19.98;75.11;100323.13;5043823;28;45372;-79
2023/07/29 03:10:36;;;;;;;;;0.75;0.75;;;;;20.00;74.87;100337.97;5037992;28;45556;-78
2023/07/29 03:13:01;;;;;;;;;2.25;1.00;;;;;19.99;75.20;100338.97;5056515;28;48320;-78
2023/07/29 03:15:26;;;;;;;;;1.00;1.00;;;;;19.95;75.12;100340.13;5040856;28;48709;-79
2023/07/29 03:17:52;;;;;;;;;3.00;1.00;;;;;19.98;74.64;100349.69;5036165;28;51535;-78
2023/07/29 03:20:19;;;;;;;;;1.00;1.00;;;;;19.97;74.02;100340.00;5036428;28;45543;-78
2023/07/29 03:22:44;;;;;;;;;1.50;1.00;;;;;19.97;74.36;100340.00;5035190;28;46365;-78
2023/07/29 03:25:10;;;;;;;;;2.00;0.75;;;;;19.91;75.26;100344.81;5038729;28;45515;-78
2023/07/29 03:27:39;;;;;;;;;1.25;1.00;;;;;19.89;73.66;100343.22;5020113;28;49285;-78
2023/07/29 03:30:05;;;;;;;;;2.00;2.00;;;;;19.89;74.78;100349.38;5036279;28;45463;-78
2023/07/29 03:32:31;;;;;;;;;2.00;2.00;;;;;19.90;75.29;100356.41;5021224;28;47744;-78
2023/07/29 03:34:56;;;;;;;;;1.00;1.00;;;;;19.89;75.03;100359.16;5038471;28;45284;-78
2023/07/29 03:37:21;;;;;;;;;3.00;1.00;;;;;19.85;75.40;100358.53;5039806;28;45358;-78
2023/07/29 03:39:47;;;;;;;;;3.00;1.50;;;;;19.86;75.04;100370.00;5035640;28;45453;-78
2023/07/29 03:42:12;;;;;;;;;1.00;1.00;;;;;19.85;74.97;100366.50;5039453;28;45580;-78
2023/07/29 03:44:39;;;;;;;;;0.75;0.00;;;;;19.88;74.96;100365.44;5031482;28;45472;-78
2023/07/29 03:47:05;;;;;;;;;2.00;2.00;;;;;19.86;75.32;100367.34;5050490;28;45496;-78
2023/07/29 03:49:30;;;;;;;;;1.00;1.00;;;;;19.84;75.15;100351.53;5039353;28;45580;-78
2023/07/29 03:51:56;;;;;;;;;1.75;1.75;;;;;19.80;75.22;100347.41;5028710;28;58903;-78
2023/07/29 03:54:21;;;;;;;;;1.75;1.25;;;;;19.84;74.91;100361.31;5030775;28;64999;-78
2023/07/29 03:56:46;;;;;;;;;1.75;1.00;;;;;19.80;74.52;100354.53;5027133;28;57522;-77
2023/07/29 03:59:12;;;;;;;;;2.00;2.00;;;;;19.76;74.97;100355.69;5018061;28;45498;-78
2023/07/29 04:01:37;;;;;;;;;1.75;1.75;;;;;19.76;75.23;100356.56;5018090;28;73826;-78
2023/07/29 04:04:02;;;;;;;;;1.00;1.00;;;;;19.73;74.90;100348.78;5035446;28;58109;-78
2023/07/29 04:06:28;;;;;;;;;1.75;1.00;;;;;19.71;75.18;100358.66;5040291;28;45337;-78
2023/07/29 04:08:53;;;;;;;;;2.00;1.00;;;;;19.68;74.79;100357.06;5037690;28;45265;-78
2023/07/29 04:11:18;;;;;;;;;3.50;1.75;;;;;19.65;75.05;100367.88;5036577;28;45351;-78
2023/07/29 04:13:44;;;;;;;;;2.00;1.00;;;;;19.62;74.77;100368.13;5035974;28;45449;-77
2023/07/29 04:16:09;;;;;;;;;1.00;1.00;;;;;19.58;74.75;100360.47;5035201;28;67466;-79
2023/07/29 04:18:34;;;;;;;;;1.50;1.00;;;;;19.56;75.21;100365.03;5035144;28;71780;-77
2023/07/29 04:21:00;;;;;;;;;2.75;2.00;;;;;19.52;75.05;100357.28;5039512;28;45373;-77
2023/07/29 04:23:25;;;;;;;;;2.00;2.00;;;;;19.56;74.69;100367.69;5037824;28;45312;-77
2023/07/29 04:25:51;;;;;;;;;3.25;1.50;;;;;19.48;75.31;100354.97;5052149;28;66685;-76
2023/07/29 04:28:17;;;;;;;;;3.25;2.00;;;;;19.52;74.95;100369.72;5037303;28;45379;-76
2023/07/29 04:30:42;;;;;;;;;2.00;2.00;;;;;19.48;75.13;100379.69;5029437;28;46330;-76
2023/07/29 04:33:07;;;;;;;;;2.00;2.00;;;;;19.45;74.96;100382.56;5021975;28;45286;-77
2023/07/29 04:35:33;;;;;;;;;1.00;1.00;;;;;19.43;74.74;100389.78;5038381;28;45395;-77
2023/07/29 04:37:58;;;;;;;;;2.00;2.00;;;;;19.46;74.86;100394.88;5037284;28;45332;-77
2023/07/29 04:40:23;;;;;;;;;2.00;2.00;;;;;19.39;74.78;100379.47;5029715;28;59513;-78
2023/07/29 04:42:49;;;;;;;;;5.00;3.00;;;;;19.41;74.84;100381.09;5025457;28;45484;-77
2023/07/29 04:45:16;;;;;;;;;1.50;1.50;;;;;19.40;74.81;100379.38;5019344;28;45478;-78
2023/07/29 04:47:41;;;;;;;;;1.00;1.00;;;;;19.40;75.15;100379.38;5029636;28;45356;-77
2023/07/29 04:50:07;;;;;;;;;1.50;1.50;;;;;19.40;74.88;100383.84;5022114;28;77866;-78
2023/07/29 04:52:32;;;;;;;;;3.25;1.25;;;;;19.38;74.50;100373.34;5035855;28;45380;-78
2023/07/29 04:54:58;;;;;;;;;2.00;2.00;;;;;19.37;74.93;100376.09;5029638;28;45475;-77
2023/07/29 04:57:23;;;;;;;;;1.00;1.00;;;;;19.34;74.56;100370.03;5031662;28;67369;-78
2023/07/29 04:59:48;;;;;;;;;2.00;1.00;;;;;19.36;74.38;100377.91;5035731;28;46465;-77
2023/07/29 05:02:14;;;;;;;;;1.75;1.75;;;;;19.32;74.54;100376.44;5032517;28;45316;-77
2023/07/29 05:04:39;;;;;;;;;1.00;1.00;;;;;19.33;74.45;100375.47;5029471;28;45249;-79
2023/07/29 05:07:05;;;;;;;;;2.00;2.00;;;;;19.31;75.13;100370.25;5035941;28;45485;-78
2023/07/29 05:09:30;;;;;;;;;1.25;1.25;;;;;19.33;74.45;100373.66;5030356;28;47447;-79
2023/07/29 05:11:55;;;;;;;;;3.25;2.00;;;;;19.35;74.76;100373.53;5060444;28;45215;-79
2023/07/29 05:14:21;;;;;;;;;2.25;2.25;;;;;19.35;74.39;100387.69;5069262;28;54837;-80
2023/07/29 05:16:47;;;;;;;;;2.00;2.00;;;;;19.42;74.47;100392.53;5057931;28;45394;-79
2023/07/29 05:19:13;;;;;;;;;1.00;1.00;;;;;19.48;74.33;100384.16;5045391;28;47217;-80
2023/07/29 05:21:38;;;;;;;;;3.00;2.00;;;;;19.53;74.44;100395.31;5051377;28;59162;-79
2023/07/29 05:24:04;;;;;;;;;1.50;1.00;;;;;19.56;74.09;100389.78;5022437;28;44787;-79
2023/07/29 05:26:30;;;;;;;;;2.75;1.00;;;;;19.56;73.69;100389.78;5035199;28;45709;-79
2023/07/29 05:28:55;;;;;;;;;1.00;1.00;;;;;19.58;73.72;100387.84;5048110;28;65930;-79
2023/07/29 05:31:22;;;;;;;;;1.00;1.00;;;;;19.61;73.80;100392.94;5031086;28;57167;-80
2023/07/29 05:33:48;;;;;;;;;0.00;0.00;;;;;19.62;73.26;100386.69;5038789;28;45389;-79
2023/07/29 05:36:13;;;;;;;;;2.00;2.00;;;;;19.64;73.30;100387.44;5031727;28;62600;-79
2023/07/29 05:38:38;;;;;;;;;1.25;1.00;;;;;19.65;73.08;100396.25;5047614;28;66366;-79
2023/07/29 05:41:04;;;;;;;;;1.50;1.50;;;;;19.59;73.15;100388.72;5036928;28;47129;-81
2023/07/29 05:43:29;;;;;;;;;1.00;1.00;;;;;19.66;73.07;100401.44;5018412;28;68265;-80
2023/07/29 05:45:54;;;;;;;;;0.00;0.00;;;;;19.65;72.90;100385.63;5037660;28;50987;-81
2023/07/29 05:48:20;;;;;;;;;1.25;1.25;;;;;19.71;72.73;100383.38;5036800;28;45496;-79
2023/07/29 05:50:45;;;;;;;;;1.00;1.00;;;;;19.71;73.11;100393.16;5024958;28;45499;-80
2023/07/29 05:53:11;;;;;;;;;1.75;1.00;;;;;19.76;72.94;100391.06;5033961;28;45302;-80
2023/07/29 05:55:36;;;;;;;;;1.75;1.75;;;;;19.78;72.21;100380.31;5031771;28;53082;-79
2023/07/29 05:58:01;;;;;;;;;2.25;2.25;;;;;19.89;72.56;100396.34;5026300;28;45543;-79
2023/07/29 06:00:27;;;;;;;;;1.25;1.00;;;;;19.87;72.40;100385.84;5032752;28;46402;-80
2023/07/29 06:02:53;;;;;;;;;2.00;2.00;;;;;19.89;72.12;100388.38;5027130;28;45430;-79
2023/07/29 06:05:18;;;;;;;;;1.75;1.00;;;;;19.90;70.83;100392.72;5033003;28;69406;-80
2023/07/29 06:07:44;;;;;;;;;2.00;0.50;;;;;19.95;71.95;100400.38;5028538;28;46555;-79
2023/07/29 06:10:14;;;;;;;;;3.00;1.00;;;;;19.90;71.49;100380.31;5038626;28;45859;-80
2023/07/29 06:12:39;;;;;;;;;2.75;1.00;;;;;19.99;71.50;100391.22;5028684;28;45324;-80
2023/07/29 06:15:05;;;;;;;;;0.50;0.50;;;;;20.01;71.89;100392.81;5034100;28;48739;-79
2023/07/29 06:17:30;;;;;;;;;3.00;1.00;;;;;20.07;71.83;100389.69;5026976;28;47248;-80
2023/07/29 06:19:56;;;;;;;;;1.00;1.00;;;;;20.14;71.34;100397.25;5034541;28;45205;-79
2023/07/29 06:22:21;;;;;;;;;1.00;1.00;;;;;20.16;70.03;100401.47;5030775;28;47336;-81
2023/07/29 06:24:46;;;;;;;;;1.00;1.00;;;;;20.23;70.74;100405.38;5032566;28;45478;-79
2023/07/29 06:27:12;;;;;;;;;1.00;1.00;;;;;20.25;70.17;100416.75;5037610;28;48984;-79
2023/07/29 06:29:37;;;;;;;;;1.00;1.00;;;;;20.30;69.77;100425.22;5036430;28;45375;-81
2023/07/29 06:32:03;;;;;;;;;1.00;1.00;;;;;20.30;70.09;100427.88;5029856;28;66796;-80
2023/07/29 06:34:28;;;;;;;;;1.00;1.00;;;;;20.36;70.23;100423.94;5032309;28;45534;-80
2023/07/29 06:36:53;;;;;;;;;1.00;1.00;;;;;20.44;68.66;100431.34;5034307;28;46498;-80
2023/07/29 06:39:19;;;;;;;;;2.00;1.00;;;;;20.45;68.24;100427.72;5035714;28;66964;-80
2023/07/29 06:41:44;;;;;;;;;1.00;1.00;;;;;20.44;69.62;100431.34;5043181;28;46400;-80
2023/07/29 06:44:09;;;;;;;;;3.00;1.50;;;;;20.47;69.18;100431.97;5053020;28;70254;-81
2023/07/29 06:46:35;;;;;;;;;2.00;1.00;;;;;20.52;68.94;100428.97;5041814;28;45583;-83
2023/07/29 06:49:00;;;;;;;;;1.00;0.75;;;;;20.55;68.64;100435.88;5035853;28;45439;-81
2023/07/29 06:51:26;;;;;;;;;0.50;0.25;;;;;20.56;68.88;100433.13;5033703;28;50904;-78
2023/07/29 06:53:52;;;;;;;;;1.00;1.00;;;;;20.59;68.50;100418.72;5018702;28;45391;-78
2023/07/29 06:56:17;;;;;;;;;1.00;1.00;;;;;20.56;68.42;100424.28;5055131;28;45996;-80
2023/07/29 06:58:42;;;;;;;;;1.25;0.00;;;;;20.57;68.30;100437.44;5034814;28;71696;-80
2023/07/29 07:01:08;;;;;;;;;0.50;0.25;;;;;20.56;68.40;100437.59;5014687;28;65390;-80
2023/07/29 07:03:33;;;;;;;;;0.25;0.25;;;;;20.49;68.12;100421.22;5021560;28;45269;-80
2023/07/29 07:05:59;;;;;;;;;0.00;0.00;;;;;20.56;67.13;100433.13;5019008;28;50113;-80
2023/07/29 07:08:24;;;;;;;;;1.00;0.75;;;;;20.56;67.46;100441.09;5019216;28;45431;-81
2023/07/29 07:10:49;;;;;;;;;0.25;0.25;;;;;20.55;68.00;100443.84;5020693;28;45492;-80
2023/07/29 07:13:15;;;;;;;;;1.00;1.00;;;;;20.66;67.71;100454.56;5037433;28;63736;-79
2023/07/29 07:15:40;;;;;;;;;0.00;0.00;;;;;20.77;67.69;100459.97;5025210;28;57818;-71
2023/07/29 07:18:05;;;;;;;;;0.00;0.00;;;;;20.87;65.53;100454.78;5030898;28;72927;-68
2023/07/29 07:20:31;;;;;;;;;0.00;0.00;;;;;20.96;65.69;100458.56;5029101;28;45312;-67
2023/07/29 07:22:56;;;;;;;;;1.00;1.00;;;;;21.02;67.29;100466.09;5031178;28;50715;-68
2023/07/29 07:25:21;;;;;;;;;0.25;0.25;;;;;21.03;66.42;100465.13;5025223;28;46051;-68
2023/07/29 07:27:47;;;;;;;;;1.75;0.50;;;;;21.10;66.98;100458.38;5027931;28;69963;-69
2023/07/29 07:30:12;;;;;;;;;1.00;1.00;;;;;21.26;66.92;100470.53;5033525;28;45403;-70
2023/07/29 07:32:37;;;;;;;;;1.00;1.00;;;;;21.34;65.96;100470.81;5017888;28;69250;-71
2023/07/29 07:35:04;;;;;;;;;1.25;1.00;;;;;21.44;65.97;100474.44;5037656;28;47137;-71
2023/07/29 07:37:29;;;;;;;;;3.00;1.00;;;;;21.53;65.52;100471.09;5049868;28;45385;-70
2023/07/29 07:39:54;;;;;;;;;1.00;0.75;;;;;21.61;65.33;100465.19;5031179;28;45284;-71
2023/07/29 07:42:20;;;;;;;;;0.00;0.00;;;;;21.65;65.01;100471.13;5022847;28;64672;-70
2023/07/29 07:44:45;;;;;;;;;0.50;0.50;;;;;21.68;64.40;100477.03;5033804;28;64315;-70
2023/07/29 07:47:10;;;;;;;;;3.50;0.00;;;;;21.69;64.77;100472.56;5033225;28;45380;-72
2023/07/29 07:49:36;;;;;;;;;0.00;0.00;;;;;21.70;64.93;100474.28;5008124;28;45428;-70
2023/07/29 07:52:01;;;;;;;;;0.00;0.00;;;;;21.74;65.05;100473.91;5029383;28;45490;-69
2023/07/29 07:54:26;;;;;;;;;0.00;0.00;;;;;21.82;65.43;100465.31;5027625;28;46048;-69
2023/07/29 07:56:52;;;;;;;;;1.00;1.00;;;;;21.92;64.93;100471.63;5032473;28;45491;-70
2023/07/29 07:59:17;;;;;;;;;0.75;0.75;;;;;21.95;64.80;100474.03;5024176;28;45941;-69
2023/07/29 08:01:42;;;;;;;;;0.00;0.00;;;;;21.95;63.17;100471.34;5020166;28;75190;-68
2023/07/29 08:04:08;;;;;;;;;0.75;0.75;;;;;21.94;64.49;100471.50;5017516;28;47990;-70
2023/07/29 08:06:33;;;;;;;;;0.25;0.25;;;;;21.96;64.15;100461.56;5029233;28;68637;-69
2023/07/29 08:08:59;;;;;;;;;0.25;0.25;;;;;21.94;64.01;100469.69;5028579;28;45585;-70
2023/07/29 08:11:25;;;;;;;;;0.00;0.00;;;;;21.96;64.19;100472.22;5030531;28;45486;-71
2023/07/29 08:13:50;;;;;;;;;0.00;0.00;;;;;21.91;63.71;100469.06;5041335;28;46504;-72
2023/07/29 08:16:16;;;;;;;;;1.00;1.00;;;;;21.93;63.00;100467.97;5037672;28;46257;-71
2023/07/29 08:18:41;;;;;;;;;1.00;0.25;;;;;21.97;62.87;100468.56;5026893;28;45483;-69
2023/07/29 08:21:06;;;;;;;;;2.25;1.00;;;;;22.06;63.64;100478.53;5051427;28;71397;-69
2023/07/29 08:23:35;;;;;;;;;0.00;0.00;;;;;22.11;64.21;100465.66;5026457;28;45348;-71
2023/07/29 08:26:05;;;;;;;;;1.00;0.00;;;;;22.24;62.63;100481.53;5021878;28;45314;-71
2023/07/29 08:28:32;;;;;;;;;1.75;1.00;;;;;22.29;62.78;100482.06;5030502;28;45456;-69
2023/07/29 08:30:58;;;;;;;;;0.50;0.50;;;;;22.33;63.00;100477.31;5025162;28;45572;-69
2023/07/29 08:33:23;;;;;;;;;1.00;1.00;;;;;22.33;62.20;100475.50;5032974;28;45413;-69
2023/07/29 08:35:49;;;;;;;;;0.00;0.00;;;;;22.33;62.70;100479.97;5028246;28;45146;-69
2023/07/29 08:38:14;;;;;;;;;0.25;0.00;;;;;22.37;62.52;100479.59;5033074;28;62235;-68
2023/07/29 08:40:57;;;;;;;;;1.00;1.00;;;;;22.40;62.36;100474.97;5018185;28;45439;-68
2023/07/29 08:43:30;;;;;;;;;2.00;1.00;;;;;22.40;62.46;100470.50;5032101;28;45602;-70
2023/07/29 08:45:57;;;;;;;;;0.00;0.00;;;;;22.44;61.76;100471.94;5024821;28;45406;-69
2023/07/29 08:48:32;;;;;;;;;1.00;1.00;;;;;22.48;62.50;100467.22;5020741;28;45482;-69
2023/07/29 08:50:59;;;;;;;;;1.00;1.00;;;;;22.51;61.63;100470.47;5009499;28;45369;-69
2023/07/29 08:53:25;;;;;;;;;1.50;1.00;;;;;22.54;61.43;100456.03;5029217;28;46194;-69
2023/07/29 08:55:53;;;;;;;;;0.00;0.00;;;;;22.62;62.15;100458.94;5026337;28;66651;-70
2023/07/29 08:58:19;;;;;;;;;1.50;1.50;;;;;22.78;62.28;100469.19;5026948;28;45428;-70
2023/07/29 09:00:45;;;;;;;;;1.75;1.00;;;;;22.99;61.48;100463.03;5027857;28;45589;-68
2023/07/29 09:03:10;;;;;;;;;1.00;1.00;;;;;23.16;60.87;100467.84;5037454;28;47903;-68
2023/07/29 09:05:35;;;;;;;;;0.00;0.00;;;;;23.21;59.90;100462.09;5038312;28;45722;-69
2023/07/29 09:08:02;;;;;;;;;0.25;0.25;;;;;23.29;60.69;100455.13;5038518;28;45244;-70
2023/07/29 09:10:28;;;;;;;;;0.00;0.00;;;;;23.36;59.66;100451.97;5021890;28;45385;-69
2023/07/29 09:12:53;;;;;;;;;0.50;0.00;;;;;23.40;59.82;100448.03;5044846;28;51242;-69
2023/07/29 09:15:32;;;;;;;;;2.75;1.75;;;;;23.44;59.33;100444.13;5032182;28;45248;-68
2023/07/29 09:17:58;;;;;;;;;1.50;1.50;;;;;23.55;59.91;100444.06;5037193;28;45441;-68
2023/07/29 09:20:27;;;;;;;;;1.00;0.25;;;;;23.62;59.56;100433.66;5030283;28;45612;-68
2023/07/29 09:22:58;;;;;;;;;1.50;1.50;;;;;23.66;57.88;100440.44;5033804;28;45275;-69
2023/07/29 09:25:29;;;;;;;;;0.00;0.00;;;;;23.65;59.13;100426.22;5031768;28;45893;-68
2023/07/29 09:28:00;;;;;;;;;2.25;0.25;;;;;23.83;58.63;100439.84;5028350;28;45383;-68
2023/07/29 09:30:25;;;;;;;;;0.25;0.25;;;;;24.00;57.40;100434.84;5030951;28;45604;-69
2023/07/29 09:32:57;;;;;;;;;0.00;0.00;;;;;24.19;58.29;100440.25;5047784;28;45506;-69
2023/07/29 09:35:24;;;;;;;;;0.00;0.00;;;;;24.33;58.03;100443.50;5017170;28;45401;-69
2023/07/29 09:37:51;;;;;;;;;0.50;0.50;;;;;24.38;57.49;100436.78;5028930;28;45450;-68
2023/07/29 09:40:17;;;;;;;;;1.00;0.25;;;;;24.35;56.31;100438.88;5019271;28;45307;-68
2023/07/29 09:42:50;;;;;;;;;0.25;0.25;;;;;24.28;57.45;100440.41;5030546;28;45519;-68
2023/07/29 09:45:23;;;;;;;;;2.00;0.25;;;;;24.23;57.65;100438.16;5019992;28;45550;-68
2023/07/29 09:47:49;;;;;;;;;0.75;0.25;;;;;24.19;56.71;100447.44;5032037;28;45424;-68
2023/07/29 09:50:15;;;;;;;;;1.75;1.25;;;;;24.23;57.34;100443.50;5026499;28;45594;-68
2023/07/29 09:52:41;;;;;;;;;2.00;1.25;;;;;24.29;57.10;100442.09;5017708;28;48143;-70
2023/07/29 09:55:07;;;;;;;;;1.50;0.25;;;;;24.40;55.21;100447.31;5018680;28;51835;-70
2023/07/29 09:57:32;;;;;;;;;0.25;0.25;;;;;24.44;56.18;100448.75;5020259;28;45687;-71
2023/07/29 09:59:58;;;;;;;;;2.25;1.50;;;;;24.50;56.78;100437.47;5015477;28;45527;-68
2023/07/29 10:02:25;;;;;;;;;0.25;0.25;;;;;24.61;56.20;100437.41;5030924;28;46194;-72
2023/07/29 10:04:52;;;;;;;;;1.00;1.00;;;;;24.74;56.39;100438.94;5018508;28;47479;-74
2023/07/29 10:07:17;;;;;;;;;2.50;1.75;;;;;24.80;55.82;100438.38;5021895;28;45568;-77
2023/07/29 10:09:44;;;;;;;;;0.25;0.25;;;;;24.90;55.41;100430.34;5025206;28;45942;-71
2023/07/29 10:12:09;;;;;;;;;1.00;0.00;;;;;24.96;55.96;100429.78;5017259;28;47286;-72
2023/07/29 10:14:35;;;;;;;;;3.25;1.00;;;;;24.93;53.87;100428.25;5032336;28;45474;-71
2023/07/29 10:17:00;;;;;;;;;2.00;2.00;;;;;24.82;54.94;100439.06;5034017;28;45395;-71
2023/07/29 10:19:26;;;;;;;;;3.25;1.25;;;;;24.72;54.04;100432.88;5023091;28;45405;-72
2023/07/29 10:21:52;;;;;;;;;3.25;2.25;;;;;24.61;53.34;100442.75;5048725;28;45334;-71
2023/07/29 10:24:22;;;;;;;;;4.00;2.00;;;;;24.54;54.71;100430.91;5027531;28;45689;-72
2023/07/29 10:26:49;;;;;;;;;2.50;1.50;;;;;24.52;53.50;100435.50;5039229;28;45460;-71
2023/07/29 10:29:19;;;;;;;;;1.00;0.00;;;;;24.56;52.77;100433.41;5034589;28;45455;-72
2023/07/29 10:31:44;;;;;;;;;1.00;1.00;;;;;24.77;54.78;100433.28;5035311;28;46063;-71
2023/07/29 10:34:10;;;;;;;;;2.75;2.00;;;;;24.87;54.83;100426.13;5030331;28;45259;-72
2023/07/29 10:36:36;;;;;;;;;2.50;1.25;;;;;24.93;54.46;100430.03;5034577;28;45297;-72
2023/07/29 10:39:02;;;;;;;;;4.00;2.00;;;;;24.91;54.04;100434.69;5033490;28;73655;-71
2023/07/29 10:41:59;;;;;;;;;2.25;2.25;;;;;24.96;53.16;100427.09;5034694;28;46383;-70
2023/07/29 10:44:40;;;;;;;;;1.25;1.25;;;;;25.06;53.44;100425.25;5050443;28;45474;-70
2023/07/29 10:47:12;;;;;;;;;3.75;2.00;;;;;25.18;54.18;100434.00;5035169;28;45266;-71
2023/07/29 10:49:40;;;;;;;;;1.00;1.00;;;;;25.35;53.85;100427.06;5035694;28;45345;-71
2023/07/29 10:52:06;;;;;;;;;1.25;1.25;;;;;25.56;52.86;100435.72;5032828;28;45447;-71
2023/07/29 10:54:41;;;;;;;;;3.00;1.00;;;;;25.70;52.87;100428.22;5031837;28;45442;-71
2023/07/29 10:57:07;;;;;;;;;2.00;1.25;;;;;25.77;52.98;100421.28;5039238;28;45327;-71
2023/07/29 10:59:33;;;;;;;;;3.00;3.00;;;;;25.86;53.07;100420.38;5034429;28;68760;-71
2023/07/29 11:02:00;;;;;;;;;2.75;2.75;;;;;25.84;52.08;100417.00;5050215;28;45464;-71
2023/07/29 11:04:27;;;;;;;;;3.25;2.50;;;;;25.77;52.57;100416.75;5021033;28;45969;-71
2023/07/29 11:07:22;;;;;;;;;5.00;3.00;;;;;25.79;52.83;100429.19;5019108;28;45230;-71
2023/07/29 11:09:48;;;;;;;;;3.50;2.75;;;;;25.73;52.15;100428.78;5039311;28;45334;-71
2023/07/29 11:12:35;;;;;;;;;2.00;2.00;;;;;25.60;52.52;100420.22;5030379;28;47126;-71
2023/07/29 11:15:08;;;;;;;;;2.25;2.25;;;;;25.56;51.95;100416.97;5032576;28;45674;-71
2023/07/29 11:17:36;;;;;;;;;3.00;3.00;;;;;25.46;52.72;100407.28;5027785;28;45296;-71
2023/07/29 11:20:03;;;;;;;;;3.00;3.00;;;;;25.43;53.53;100420.97;5030974;28;45439;-72
2023/07/29 11:22:29;;;;;;;;;1.75;1.25;;;;;25.43;52.10;100413.78;5025829;28;47134;-72